createdAt,value
2023-02-26T00:00:24.779Z,1.58
2023-02-26T00:04:08.884Z,1.50
2023-02-26T00:07:50.804Z,2.28
2023-02-26T00:11:33.709Z,1.23
2023-02-26T00:15:17.881Z,1.42
2023-02-26T00:19:02.537Z,1.65
2023-02-26T00:22:45.243Z,1.52
2023-02-26T00:26:28.168Z,1.10
2023-02-26T00:30:11.508Z,1.25
2023-02-26T00:33:54.857Z,1.27
2023-02-26T00:37:55.848Z,1.50
2023-02-26T00:41:38.992Z,1.80
2023-02-26T00:45:21.602Z,1.70
2023-02-26T00:49:11.738Z,1.90
2023-02-26T00:53:12.190Z,1.40
2023-02-26T00:56:56.259Z,1.38
2023-02-26T01:00:38.329Z,1.50
2023-02-26T01:04:22.792Z,2.10
2023-02-26T01:08:36.595Z,1.70
2023-02-26T01:12:18.791Z,1.83
2023-02-26T01:16:09.926Z,1.40
2023-02-26T01:20:02.078Z,1.73
2023-02-26T01:23:48.167Z,1.60
2023-02-26T01:27:30.383Z,1.60
2023-02-26T01:31:43.877Z,1.88
2023-02-26T01:35:54.634Z,1.75
2023-02-26T01:40:20.881Z,2.97
2023-02-26T01:44:08.801Z,4.38
2023-02-26T01:48:04.429Z,3.85
2023-02-26T01:51:52.849Z,4.30
2023-02-26T01:55:34.882Z,3.30
2023-02-26T01:59:24.350Z,4.13
2023-02-26T02:03:06.617Z,4.18
2023-02-26T02:06:48.776Z,2.50
2023-02-26T02:10:31.017Z,3.63
2023-02-26T02:14:54.548Z,2.70
2023-02-26T02:19:14.112Z,2.72
2023-02-26T02:22:59.780Z,2.35
2023-02-26T02:26:57.158Z,2.45
2023-02-26T02:30:49.821Z,1.90
2023-02-26T02:34:58.776Z,2.20
2023-02-26T02:38:49.330Z,2.00
2023-02-26T02:42:37.604Z,1.98
2023-02-26T02:46:28.344Z,1.70
2023-02-26T02:50:21.650Z,1.73
2023-02-26T02:54:21.128Z,1.98
2023-02-26T02:58:15.270Z,1.90
2023-02-26T03:02:23.630Z,2.08
2023-02-26T03:06:05.980Z,2.08
2023-02-26T03:09:48.079Z,1.90
2023-02-26T03:13:30.152Z,2.22
2023-02-26T03:17:18.340Z,1.80
2023-02-26T03:21:06.961Z,1.95
2023-02-26T03:25:09.247Z,1.83
2023-02-26T03:28:54.880Z,1.70
2023-02-26T03:32:50.943Z,1.73
2023-02-26T03:36:36.459Z,1.67
2023-02-26T03:40:27.902Z,2.22
2023-02-26T03:44:32.657Z,2.47
2023-02-26T03:48:19.641Z,2.22
2023-02-26T03:52:03.340Z,2.40
2023-02-26T03:56:00.450Z,1.90
2023-02-26T04:03:38.533Z,2.08
2023-02-26T04:07:21.360Z,2.40
2023-02-26T04:11:12.418Z,1.77
2023-02-26T04:14:56.240Z,1.80
2023-02-26T04:18:38.860Z,1.80
2023-02-26T04:22:20.794Z,1.92
2023-02-26T04:26:02.794Z,1.85
2023-02-26T04:29:44.778Z,2.13
2023-02-26T04:33:27.391Z,2.17
2023-02-26T04:37:09.477Z,2.00
2023-02-26T04:40:51.605Z,2.20
2023-02-26T04:44:33.613Z,2.00
2023-02-26T04:48:16.250Z,1.92
2023-02-26T04:51:58.301Z,2.00
2023-02-26T04:55:41.450Z,2.05
2023-02-26T04:59:23.436Z,2.28
2023-02-26T05:03:06.387Z,2.03
2023-02-26T05:06:48.425Z,2.10
2023-02-26T05:10:30.431Z,2.45
2023-02-26T05:14:12.442Z,2.40
2023-02-26T05:17:54.448Z,2.20
2023-02-26T05:21:36.531Z,2.40
2023-02-26T05:25:18.575Z,2.30
2023-02-26T05:29:00.512Z,2.30
2023-02-26T05:32:43.487Z,2.17
2023-02-26T05:36:25.941Z,2.58
2023-02-26T05:40:13.350Z,2.17
2023-02-26T05:43:55.373Z,2.80
2023-02-26T05:47:37.715Z,2.97
2023-02-26T05:51:19.752Z,2.85
2023-02-26T05:55:02.406Z,2.38
2023-02-26T05:58:44.595Z,2.92
2023-02-26T06:02:26.634Z,2.38
2023-02-26T06:06:08.616Z,2.70
2023-02-26T06:09:50.605Z,2.70
2023-02-26T06:13:32.612Z,2.22
2023-02-26T06:17:14.795Z,2.35
2023-02-26T06:20:56.782Z,2.17
2023-02-26T06:24:38.770Z,2.75
2023-02-26T06:28:21.328Z,2.78
2023-02-26T06:32:04.102Z,2.55
2023-02-26T06:35:46.404Z,2.38
2023-02-26T06:39:28.355Z,2.70
2023-02-26T06:43:10.434Z,2.90
2023-02-26T06:46:52.721Z,2.47
2023-02-26T06:50:34.678Z,2.78
2023-02-26T06:54:16.809Z,2.20
2023-02-26T06:57:58.771Z,2.22
2023-02-26T07:01:40.821Z,2.50
2023-02-26T07:05:22.842Z,2.72
2023-02-26T07:09:04.908Z,2.70
2023-02-26T07:12:47.027Z,2.70
2023-02-26T07:16:29.238Z,2.47
2023-02-26T07:20:12.421Z,2.33
2023-02-26T07:23:54.371Z,3.55
2023-02-26T07:27:36.539Z,2.58
2023-02-26T07:31:18.710Z,2.85
2023-02-26T07:35:00.725Z,2.70
2023-02-26T07:38:42.764Z,2.30
2023-02-26T07:42:24.758Z,2.55
2023-02-26T07:46:06.798Z,2.60
2023-02-26T07:49:48.914Z,2.22
2023-02-26T07:53:31.106Z,2.25
2023-02-26T07:57:13.056Z,2.35
2023-02-26T08:00:55.116Z,2.35
2023-02-26T08:04:37.207Z,2.15
2023-02-26T08:08:19.231Z,2.00
2023-02-26T08:12:01.302Z,1.88
2023-02-26T08:15:44.199Z,2.15
2023-02-26T08:19:26.250Z,2.10
2023-02-26T08:23:08.221Z,2.60
2023-02-26T08:26:50.275Z,2.10
2023-02-26T08:30:32.242Z,1.98
2023-02-26T08:34:14.319Z,1.70
2023-02-26T08:37:56.302Z,1.98
2023-02-26T08:41:38.237Z,1.88
2023-02-26T08:45:20.169Z,1.60
2023-02-26T08:49:02.343Z,1.60
2023-02-26T08:52:44.337Z,1.67
2023-02-26T08:56:26.604Z,1.40
2023-02-26T09:00:12.650Z,1.25
2023-02-26T09:03:54.599Z,1.63
2023-02-26T09:07:36.602Z,1.80
2023-02-26T09:11:18.757Z,1.30
2023-02-26T09:15:00.832Z,1.58
2023-02-26T09:18:42.784Z,1.38
2023-02-26T09:22:25.293Z,1.30
2023-02-26T09:26:09.145Z,1.50
2023-02-26T09:29:51.277Z,1.85
2023-02-26T09:33:34.031Z,1.30
2023-02-26T09:37:15.975Z,1.75
2023-02-26T09:41:03.391Z,1.27
2023-02-26T09:44:45.769Z,1.50
2023-02-26T09:48:30.070Z,1.33
2023-02-26T09:52:18.167Z,1.45
2023-02-26T09:56:07.310Z,1.55
2023-02-26T09:59:49.271Z,1.13
2023-02-26T10:03:37.603Z,1.00
2023-02-26T10:07:28.216Z,1.13
2023-02-26T10:11:23.329Z,1.10
2023-02-26T10:15:29.258Z,1.10
2023-02-26T10:19:17.232Z,1.33
2023-02-26T10:23:17.244Z,1.10
2023-02-26T10:27:09.819Z,1.17
2023-02-26T10:30:58.283Z,1.00
2023-02-26T10:34:57.313Z,0.73
2023-02-26T10:38:39.331Z,1.23
2023-02-26T10:42:32.079Z,0.80
2023-02-26T10:46:23.366Z,0.80
2023-02-26T10:50:10.085Z,0.70
2023-02-26T11:01:27.057Z,0.75
2023-02-26T11:05:31.113Z,1.08
2023-02-26T11:09:37.930Z,0.90
2023-02-26T11:13:23.252Z,1.05
2023-02-26T11:17:23.180Z,0.77
2023-02-26T11:21:06.741Z,1.02
2023-02-26T11:24:51.383Z,0.70
2023-02-26T11:28:37.997Z,1.20
2023-02-26T11:32:34.452Z,0.88
2023-02-26T11:36:20.190Z,0.80
2023-02-26T11:40:18.662Z,0.77
2023-02-26T11:44:08.810Z,0.70
2023-02-26T11:48:04.230Z,1.00
2023-02-26T11:51:48.282Z,0.80
2023-02-26T11:55:48.246Z,0.63
2023-02-26T11:59:32.838Z,1.00
2023-02-26T12:03:22.340Z,0.82
2023-02-26T12:07:04.394Z,0.68
2023-02-26T12:11:04.239Z,0.57
2023-02-26T12:14:49.166Z,0.52
2023-02-26T12:18:43.037Z,0.50
2023-02-26T12:22:30.412Z,0.40
2023-02-26T12:26:28.960Z,0.50
2023-02-26T12:30:42.467Z,0.50
2023-02-26T12:34:49.191Z,0.47
2023-02-26T12:38:40.803Z,0.50
2023-02-26T12:42:54.634Z,0.70
2023-02-26T12:46:55.289Z,0.70
2023-02-26T12:50:49.331Z,0.40
2023-02-26T12:54:42.072Z,0.55
2023-02-26T12:58:31.840Z,0.50
2023-02-26T13:02:43.363Z,0.77
2023-02-26T13:06:28.108Z,0.47
2023-02-26T13:10:18.847Z,0.50
2023-02-26T13:14:03.605Z,0.70
2023-02-26T13:18:15.004Z,0.43
2023-02-26T13:22:17.825Z,0.30
2023-02-26T13:26:02.976Z,0.60
2023-02-26T13:29:51.388Z,0.40
2023-02-26T13:33:36.050Z,0.40
2023-02-26T13:37:32.131Z,0.50
2023-02-26T13:41:21.372Z,0.50
2023-02-26T13:45:23.901Z,0.52
2023-02-26T13:49:30.020Z,0.43
2023-02-26T13:53:50.667Z,0.40
2023-02-26T13:57:52.920Z,0.50
2023-02-26T14:01:48.430Z,0.50
2023-02-26T14:06:07.640Z,0.43
2023-02-26T14:10:05.412Z,0.57
2023-02-26T14:14:12.332Z,0.25
2023-02-26T14:18:05.943Z,0.30
2023-02-26T14:22:02.337Z,0.52
2023-02-26T14:25:53.411Z,0.40
2023-02-26T14:29:44.591Z,0.28
2023-02-26T14:33:31.515Z,0.45
2023-02-26T14:37:16.411Z,0.40
2023-02-26T14:41:18.867Z,0.40
2023-02-26T14:45:30.999Z,0.50
2023-02-26T14:49:24.610Z,0.70
2023-02-26T14:53:38.490Z,0.50
2023-02-26T14:58:05.868Z,0.35
2023-02-26T15:01:50.173Z,0.47
2023-02-26T15:05:54.876Z,0.50
2023-02-26T15:09:50.819Z,0.45
2023-02-26T15:14:14.674Z,0.50
2023-02-26T15:18:06.598Z,0.98
2023-02-26T15:21:53.166Z,0.85
2023-02-26T15:25:43.939Z,1.15
2023-02-26T15:29:32.623Z,1.25
2023-02-26T15:33:18.193Z,0.55
2023-02-26T15:37:01.376Z,0.70
2023-02-26T15:40:43.806Z,0.90
2023-02-26T15:44:30.893Z,1.20
2023-02-26T15:48:15.413Z,1.13
2023-02-26T15:51:59.579Z,0.70
2023-02-26T15:55:49.734Z,0.70
2023-02-26T15:59:33.190Z,0.65
2023-02-26T16:03:15.180Z,0.50
2023-02-26T16:06:58.374Z,0.50
2023-02-26T16:10:43.016Z,0.60
2023-02-26T16:14:32.617Z,0.47
2023-02-26T16:18:18.686Z,0.40
2023-02-26T16:22:06.149Z,0.70
2023-02-26T16:26:03.052Z,0.60
2023-02-26T16:29:51.967Z,0.52
2023-02-26T16:33:35.031Z,0.50
2023-02-26T16:37:29.187Z,0.70
2023-02-26T16:41:12.505Z,0.70
2023-02-26T16:45:18.200Z,0.60
2023-02-26T16:49:09.797Z,0.40
2023-02-26T16:53:00.615Z,0.70
2023-02-26T16:56:43.725Z,0.68
2023-02-26T17:00:32.757Z,1.00
2023-02-26T17:04:17.423Z,0.80
2023-02-26T17:08:33.065Z,0.65
2023-02-26T17:12:22.220Z,0.80
2023-02-26T17:16:09.770Z,1.10
2023-02-26T17:19:53.210Z,1.45
2023-02-26T17:23:38.758Z,1.20
2023-02-26T17:27:37.136Z,1.38
2023-02-26T17:31:19.304Z,1.38
2023-02-26T17:35:03.009Z,1.20
2023-02-26T17:38:47.234Z,1.30
2023-02-26T17:42:29.192Z,0.85
2023-02-26T17:46:12.587Z,1.00
2023-02-26T17:49:54.800Z,0.80
2023-02-26T17:53:41.119Z,0.95
2023-02-26T17:57:24.215Z,1.08
2023-02-26T18:01:06.292Z,1.00
2023-02-26T18:04:48.367Z,1.10
2023-02-26T18:08:34.402Z,1.08
2023-02-26T18:12:18.655Z,1.20
2023-02-26T18:16:02.974Z,1.15
2023-02-26T18:19:46.469Z,1.80
2023-02-26T18:23:28.466Z,1.27
2023-02-26T18:27:17.444Z,1.55
2023-02-26T18:31:00.065Z,1.65
2023-02-26T18:34:42.711Z,1.20
2023-02-26T18:38:27.660Z,1.30
2023-02-26T18:42:20.367Z,1.25
2023-02-26T18:46:02.541Z,1.45
2023-02-26T18:49:45.019Z,1.30
2023-02-26T18:53:27.698Z,1.92
2023-02-26T18:57:10.272Z,2.03
2023-02-26T19:00:52.376Z,2.17
2023-02-26T19:04:34.459Z,1.75
2023-02-26T19:08:16.388Z,2.30
2023-02-26T19:11:58.689Z,2.20
2023-02-26T19:15:41.125Z,1.85
2023-02-26T19:19:23.262Z,2.13
2023-02-26T19:23:06.108Z,1.80
2023-02-26T19:26:49.145Z,2.00
2023-02-26T19:30:31.632Z,1.95
2023-02-26T19:34:14.696Z,2.20
2023-02-26T19:37:56.774Z,2.10
2023-02-26T19:41:38.809Z,2.15
2023-02-26T19:45:20.930Z,2.53
2023-02-26T19:49:02.888Z,2.58
2023-02-26T19:52:45.067Z,2.50
2023-02-26T19:56:27.234Z,3.20
2023-02-26T20:00:10.471Z,2.60
2023-02-26T20:03:52.508Z,2.95
2023-02-26T20:07:34.993Z,2.35
2023-02-26T20:11:17.039Z,2.85
2023-02-26T20:14:59.084Z,3.05
2023-02-26T20:18:41.028Z,2.50
2023-02-26T20:22:24.668Z,3.10
2023-02-26T20:26:15.913Z,3.20
2023-02-26T20:29:57.955Z,2.63
2023-02-26T20:33:40.140Z,2.70
2023-02-26T20:37:22.128Z,2.83
2023-02-26T20:41:05.238Z,2.80
2023-02-26T20:44:47.258Z,2.70
2023-02-26T20:48:29.824Z,2.50
2023-02-26T20:52:11.760Z,2.58
2023-02-26T20:55:55.160Z,2.42
2023-02-26T20:59:37.317Z,2.42
2023-02-26T21:03:19.878Z,2.65
2023-02-26T21:07:13.972Z,2.65
2023-02-26T21:10:56.812Z,2.95
2023-02-26T21:14:38.765Z,2.75
2023-02-26T21:18:20.795Z,2.90
2023-02-26T21:22:03.461Z,2.65
2023-02-26T21:25:45.506Z,3.30
2023-02-26T21:29:27.491Z,2.60
2023-02-26T21:33:09.533Z,2.72
2023-02-26T21:36:51.883Z,2.80
2023-02-26T21:40:33.868Z,2.80
2023-02-26T21:44:15.852Z,2.95
2023-02-26T21:47:57.811Z,2.95
2023-02-26T21:51:39.814Z,2.90
2023-02-26T21:55:21.756Z,2.83
2023-02-26T21:59:04.379Z,3.15
2023-02-26T22:02:46.431Z,3.10
2023-02-26T22:06:28.678Z,3.30
2023-02-26T22:10:12.170Z,3.30
2023-02-26T22:13:54.140Z,2.72
2023-02-26T22:17:37.244Z,3.00
2023-02-26T22:21:19.357Z,3.00
2023-02-26T22:25:01.453Z,2.97
2023-02-26T22:28:43.506Z,2.88
2023-02-26T22:32:25.639Z,2.65
2023-02-26T22:36:07.847Z,2.97
2023-02-26T22:39:49.851Z,2.42
2023-02-26T22:43:31.836Z,2.65
2023-02-26T22:47:13.893Z,2.65
2023-02-26T22:50:55.932Z,3.10
2023-02-26T22:54:39.089Z,2.88
2023-02-26T22:58:21.293Z,2.72
2023-02-26T23:02:03.381Z,2.40
2023-02-26T23:05:45.360Z,3.05
2023-02-26T23:09:27.585Z,3.00
2023-02-26T23:13:09.623Z,2.75
2023-02-26T23:16:51.584Z,2.70
2023-02-26T23:20:33.532Z,2.88
2023-02-26T23:24:15.568Z,2.83
2023-02-26T23:27:57.511Z,2.53
2023-02-26T23:31:40.203Z,2.53
2023-02-26T23:35:22.461Z,2.65
2023-02-26T23:39:04.491Z,2.40
2023-02-26T23:42:46.440Z,2.80
2023-02-26T23:46:28.447Z,3.00
2023-02-26T23:50:11.179Z,2.70
2023-02-26T23:53:53.160Z,3.30
2023-02-26T23:57:35.225Z,2.47
